Time;durP1;ratioP1;P1;durP2;ratioP2;P2;SDS_P1;SDS_P2;PMS_P1;PMS_P2;Temp;Humidity;BMP_temperature;BMP_pressure;BME280_temperature;BME280_humidity;BME280_pressure;Samples;Min_cycle;Max_cycle;Signal;HPM_P1;HPM_P2
2022/12/30 00:00:44;;;;;;;0.90;0.70;;;13.80;61.10;;;;;;4993829;28;20425;-57
2022/12/30 00:03:10;;;;;;;1.17;0.77;;;13.80;61.70;;;;;;4994718;28;20194;-57
2022/12/30 00:05:35;;;;;;;0.80;0.70;;;13.70;61.10;;;;;;4994389;28;20252;-57
2022/12/30 00:08:01;;;;;;;0.60;0.60;;;13.80;61.20;;;;;;4994423;28;20229;-57
2022/12/30 00:10:27;;;;;;;1.00;0.77;;;13.80;61.10;;;;;;4993799;28;20190;-58
2022/12/30 00:35:13;;;;;;;1.13;0.70;;;13.80;61.40;;;;;;4994157;28;20826;-58
2022/12/30 00:37:39;;;;;;;1.37;1.10;;;13.80;61.60;;;;;;4993828;28;20465;-58
2022/12/30 00:40:05;;;;;;;0.80;0.80;;;13.70;61.80;;;;;;4991708;28;20453;-58
2022/12/30 00:45:15;;;;;;;0.93;0.80;;;13.80;61.70;;;;;;4993619;28;20461;-58
2022/12/30 00:47:42;;;;;;;2.33;0.80;;;13.80;61.40;;;;;;4993480;28;20501;-57
2022/12/30 00:58:20;;;;;;;1.50;1.10;;;13.70;61.50;;;;;;4993004;28;20992;-58
2022/12/30 01:00:45;;;;;;;1.20;1.00;;;13.70;61.60;;;;;;4993319;28;20465;-57
2022/12/30 01:03:11;;;;;;;1.80;1.10;;;13.70;61.70;;;;;;4993297;28;20267;-58
2022/12/30 01:05:40;;;;;;;0.90;0.90;;;13.70;61.70;;;;;;4993149;28;20562;-58
2022/12/30 01:08:06;;;;;;;0.70;0.70;;;13.70;61.90;;;;;;4991495;28;20222;-58
2022/12/30 01:10:32;;;;;;;1.63;0.80;;;13.70;61.90;;;;;;4992363;28;20429;-58
2022/12/30 01:12:57;;;;;;;0.70;0.70;;;13.70;61.90;;;;;;4993126;28;20425;-58
2022/12/30 01:15:23;;;;;;;0.70;0.70;;;13.80;61.80;;;;;;4993058;28;20202;-57
2022/12/30 01:17:49;;;;;;;1.10;0.90;;;13.70;61.70;;;;;;4992794;28;20729;-58
2022/12/30 01:20:15;;;;;;;1.90;0.77;;;13.70;62.50;;;;;;5005600;28;20194;-58
2022/12/30 01:22:40;;;;;;;4.70;1.00;;;13.70;61.40;;;;;;4993094;28;20208;-57
2022/12/30 01:25:06;;;;;;;1.07;0.60;;;13.70;61.50;;;;;;4989311;28;20278;-58
2022/12/30 01:27:32;;;;;;;0.80;0.80;;;13.60;61.60;;;;;;4992863;28;20654;-57
2022/12/30 01:29:58;;;;;;;0.50;0.50;;;13.60;61.80;;;;;;4992382;28;20194;-58
2022/12/30 01:32:27;;;;;;;1.97;0.70;;;13.60;62.00;;;;;;4992361;28;20430;-58
2022/12/30 01:34:53;;;;;;;0.60;0.60;;;13.60;61.90;;;;;;4991931;28;20433;-58
2022/12/30 01:37:19;;;;;;;0.80;0.80;;;13.60;61.80;;;;;;4992571;28;20464;-58
2022/12/30 01:39:45;;;;;;;1.70;0.80;;;13.60;61.70;;;;;;4992217;28;20458;-58
2022/12/30 01:42:36;;;;;;;0.60;0.60;;;13.60;61.90;;;;;;4992855;28;20424;-58
2022/12/30 01:45:17;;;;;;;0.93;0.60;;;13.60;62.20;;;;;;4992625;28;20496;-57
2022/12/30 01:47:43;;;;;;;0.80;0.80;;;13.60;62.10;;;;;;4992312;28;20861;-58
2022/12/30 01:50:09;;;;;;;0.70;0.70;;;13.40;62.20;;;;;;4992405;28;20426;-58
2022/12/30 01:52:37;;;;;;;2.10;1.00;;;13.40;62.50;;;;;;4992491;28;20222;-58
2022/12/30 01:55:13;;;;;;;2.13;0.80;;;13.40;62.40;;;;;;4992536;28;20549;-57
2022/12/30 01:57:42;;;;;;;0.70;0.70;;;13.40;62.10;;;;;;4992534;28;20870;-58
2022/12/30 02:00:08;;;;;;;0.90;0.67;;;13.50;62.10;;;;;;4990914;28;20512;-58
2022/12/30 02:02:34;;;;;;;1.60;0.70;;;13.50;62.00;;;;;;4992103;28;20522;-58
2022/12/30 02:05:01;;;;;;;0.70;0.70;;;13.50;61.90;;;;;;4992428;28;20513;-58
2022/12/30 02:07:33;;;;;;;1.17;0.80;;;13.50;61.90;;;;;;4992285;28;20619;-58
2022/12/30 02:10:00;;;;;;;2.60;0.83;;;13.50;61.80;;;;;;4991868;28;20437;-57
2022/12/30 02:12:25;;;;;;;0.80;0.80;;;13.50;61.70;;;;;;4992082;28;20417;-58
2022/12/30 02:14:55;;;;;;;0.93;0.70;;;13.50;61.70;;;;;;4992138;28;20433;-58
2022/12/30 02:17:26;;;;;;;0.80;0.50;;;13.50;61.90;;;;;;4991973;28;20238;-58
2022/12/30 02:20:13;;;;;;;0.70;0.70;;;13.40;62.00;;;;;;5004897;28;20448;-58
2022/12/30 02:22:50;;;;;;;0.80;0.80;;;13.30;62.30;;;;;;4992287;28;20449;-58
2022/12/30 02:25:27;;;;;;;1.40;1.00;;;13.30;62.30;;;;;;4993142;28;20796;-58
2022/12/30 02:28:32;;;;;;;1.47;0.60;;;13.30;62.30;;;;;;4995218;28;20484;-57
2022/12/30 02:31:31;;;;;;;0.80;0.80;;;13.20;62.00;;;;;;4976874;28;20438;-58
2022/12/30 02:34:19;;;;;;;1.57;0.90;;;13.20;61.90;;;;;;4996094;28;20421;-58
2022/12/30 02:36:55;;;;;;;2.00;0.80;;;13.10;62.30;;;;;;4995973;28;20484;-57
2022/12/30 02:39:34;;;;;;;0.77;0.70;;;13.20;62.20;;;;;;4995546;28;20449;-59
2022/12/30 02:45:18;;;;;;;1.93;0.60;;;13.20;61.70;;;;;;4996131;28;20508;-58
2022/12/30 02:47:55;;;;;;;0.80;0.70;;;13.30;61.60;;;;;;4995697;28;20600;-58
2022/12/30 02:53:14;;;;;;;1.93;1.83;;;13.20;60.90;;;;;;4994639;28;20533;-58
2022/12/30 02:55:40;;;;;;;1.00;0.80;;;13.20;60.80;;;;;;4995790;28;20426;-58
2022/12/30 02:58:05;;;;;;;2.90;0.90;;;13.20;60.70;;;;;;4995290;28;20429;-58
2022/12/30 03:04:02;;;;;;;0.63;0.60;;;13.10;61.30;;;;;;4995547;28;20228;-58
2022/12/30 03:06:57;;;;;;;0.90;0.60;;;13.10;61.20;;;;;;4991864;28;20880;-58
2022/12/30 03:13:08;;;;;;;0.67;0.60;;;13.10;61.10;;;;;;4995798;28;20553;-58
2022/12/30 03:15:44;;;;;;;0.83;0.70;;;13.10;60.70;;;;;;4995336;28;20429;-58
2022/12/30 03:18:10;;;;;;;1.30;0.67;;;13.10;60.50;;;;;;4994476;28;20892;-57
2022/12/30 03:20:38;;;;;;;0.77;0.70;;;13.10;60.30;;;;;;5005711;28;20509;-58
2022/12/30 03:28:38;;;;;;;0.70;0.60;;;13.10;60.40;;;;;;4994693;28;20477;-58
2022/12/30 03:31:10;;;;;;;1.33;0.87;;;13.10;60.30;;;;;;4995086;28;20438;-58
2022/12/30 03:33:35;;;;;;;0.80;0.60;;;13.10;60.20;;;;;;4994636;28;20889;-58
2022/12/30 03:36:33;;;;;;;0.70;0.70;;;13.20;60.50;;;;;;4994913;28;20437;-58
2022/12/30 03:39:04;;;;;;;0.70;0.50;;;13.10;60.30;;;;;;4985198;28;20238;-58
2022/12/30 03:41:31;;;;;;;1.00;0.70;;;13.10;60.20;;;;;;4994660;28;20422;-58
2022/12/30 03:43:56;;;;;;;1.37;0.90;;;13.10;60.40;;;;;;4994494;28;20424;-57
2022/12/30 03:46:32;;;;;;;1.33;0.80;;;13.00;60.30;;;;;;4993149;28;20429;-58
2022/12/30 03:48:58;;;;;;;0.83;0.83;;;13.00;60.30;;;;;;4993914;28;20748;-58
2022/12/30 03:51:24;;;;;;;0.90;0.80;;;13.00;60.40;;;;;;4994586;28;20437;-58
2022/12/30 03:53:50;;;;;;;0.57;0.57;;;13.00;60.60;;;;;;4994511;28;20199;-59
2022/12/30 03:56:15;;;;;;;1.20;0.77;;;12.90;60.60;;;;;;4994486;28;20233;-57
2022/12/30 03:58:41;;;;;;;0.87;0.60;;;12.80;60.60;;;;;;4994029;28;20557;-58
2022/12/30 04:01:06;;;;;;;0.87;0.60;;;12.70;60.60;;;;;;4994580;28;20241;-58
2022/12/30 04:03:32;;;;;;;1.67;1.30;;;12.60;60.90;;;;;;4994273;28;20277;-58
2022/12/30 04:05:57;;;;;;;0.97;0.70;;;12.60;60.70;;;;;;4994558;28;20198;-57
2022/12/30 04:08:23;;;;;;;1.97;0.80;;;12.60;61.00;;;;;;4993601;28;20628;-58
2022/12/30 04:10:50;;;;;;;0.70;0.63;;;12.60;60.50;;;;;;4994195;28;20202;-58
2022/12/30 04:13:16;;;;;;;1.20;0.63;;;12.60;60.40;;;;;;4992485;28;20426;-58
2022/12/30 04:15:41;;;;;;;1.10;0.60;;;12.60;60.20;;;;;;4994197;28;20812;-57
2022/12/30 04:18:07;;;;;;;0.60;0.60;;;12.60;59.90;;;;;;4993853;28;20462;-57
2022/12/30 04:20:33;;;;;;;0.83;0.60;;;12.50;59.90;;;;;;5006501;28;20207;-57
2022/12/30 04:22:59;;;;;;;0.80;0.80;;;12.50;59.90;;;;;;4994028;28;20785;-57
2022/12/30 04:25:25;;;;;;;1.47;1.37;;;12.50;59.80;;;;;;4990634;28;20199;-58
2022/12/30 04:27:51;;;;;;;1.00;1.00;;;12.40;59.70;;;;;;4993778;28;20293;-58
2022/12/30 04:30:17;;;;;;;3.03;1.23;;;12.30;59.80;;;;;;4993627;28;20922;-57
2022/12/30 04:32:42;;;;;;;1.17;1.07;;;12.30;60.10;;;;;;4993775;28;20433;-57
2022/12/30 04:35:08;;;;;;;0.63;0.63;;;12.30;60.10;;;;;;4993868;28;20241;-57
2022/12/30 04:37:34;;;;;;;0.80;0.80;;;12.20;60.00;;;;;;4993581;28;20282;-57
2022/12/30 04:40:00;;;;;;;0.90;0.90;;;12.20;59.90;;;;;;4991671;28;20513;-58
2022/12/30 04:42:25;;;;;;;1.20;1.10;;;12.20;59.90;;;;;;4993858;28;20547;-58
2022/12/30 04:44:51;;;;;;;1.10;1.10;;;12.20;59.90;;;;;;4993682;28;20195;-57
2022/12/30 04:47:16;;;;;;;1.30;1.20;;;12.10;59.60;;;;;;4992713;28;20195;-57
2022/12/30 04:49:43;;;;;;;1.60;1.10;;;12.10;59.70;;;;;;4993062;28;20229;-57
2022/12/30 04:52:09;;;;;;;0.60;0.60;;;12.00;59.70;;;;;;4993469;28;20198;-57
2022/12/30 04:54:34;;;;;;;1.10;0.97;;;11.90;59.70;;;;;;4993779;28;20512;-57
2022/12/30 04:57:00;;;;;;;0.90;0.83;;;11.90;60.00;;;;;;4993377;28;20197;-57
2022/12/30 04:59:26;;;;;;;0.70;0.70;;;11.90;60.40;;;;;;4992749;28;20191;-58
2022/12/30 05:01:51;;;;;;;2.13;0.80;;;11.80;60.80;;;;;;4993267;28;20194;-58
2022/12/30 05:04:17;;;;;;;1.17;1.07;;;11.70;60.90;;;;;;4993358;28;20194;-57
2022/12/30 05:06:43;;;;;;;0.70;0.70;;;11.60;61.30;;;;;;4990731;28;20206;-57
2022/12/30 05:09:08;;;;;;;1.50;0.57;;;11.40;62.10;;;;;;4992689;28;20254;-57
2022/12/30 05:11:34;;;;;;;1.27;0.77;;;11.30;62.40;;;;;;4992871;28;20191;-57
2022/12/30 05:13:59;;;;;;;1.50;0.80;;;11.30;62.70;;;;;;4992795;28;20195;-57
2022/12/30 05:16:25;;;;;;;2.63;0.63;;;11.30;62.70;;;;;;4992636;28;20300;-57
2022/12/30 05:18:50;;;;;;;0.77;0.70;;;11.00;62.90;;;;;;4998796;28;20259;-57
2022/12/30 05:21:16;;;;;;;1.43;0.60;;;11.00;63.60;;;;;;4999188;28;20226;-57
2022/12/30 05:26:26;;;;;;;1.90;0.80;;;10.60;64.30;;;;;;4989863;28;20585;-57
2022/12/30 05:28:51;;;;;;;1.33;1.07;;;10.60;64.60;;;;;;4992262;28;20489;-57
2022/12/30 05:31:19;;;;;;;1.10;0.80;;;10.70;64.90;;;;;;4990836;28;20191;-57
2022/12/30 05:33:45;;;;;;;4.10;0.83;;;10.80;64.40;;;;;;4992549;28;20578;-57
2022/12/30 05:36:11;;;;;;;1.97;1.17;;;11.00;63.60;;;;;;4992547;28;20434;-57
2022/12/30 05:38:38;;;;;;;2.00;1.23;;;11.00;62.90;;;;;;4992225;28;20804;-57
2022/12/30 05:41:04;;;;;;;1.33;1.10;;;10.90;63.10;;;;;;4992386;28;20805;-57
2022/12/30 05:43:30;;;;;;;2.03;1.20;;;11.00;63.20;;;;;;4992545;28;20425;-57
2022/12/30 05:45:57;;;;;;;0.90;0.80;;;11.00;62.80;;;;;;4992269;28;20422;-57
2022/12/30 05:48:23;;;;;;;1.00;0.80;;;10.90;62.70;;;;;;4991893;28;20237;-57
2022/12/30 05:50:49;;;;;;;1.40;1.00;;;10.80;63.40;;;;;;4992289;28;20446;-57
2022/12/30 05:53:15;;;;;;;1.50;1.10;;;10.90;63.10;;;;;;4992136;28;20510;-57
2022/12/30 05:55:41;;;;;;;1.20;0.97;;;11.00;62.90;;;;;;4992316;28;20525;-57
2022/12/30 05:58:06;;;;;;;1.00;0.90;;;11.00;62.70;;;;;;4990032;28;20436;-57
2022/12/30 06:00:32;;;;;;;2.00;1.20;;;11.10;62.50;;;;;;4992202;28;20600;-57
2022/12/30 06:02:57;;;;;;;1.50;0.80;;;11.20;62.20;;;;;;4992222;28;20198;-57
2022/12/30 06:05:23;;;;;;;0.80;0.70;;;11.10;61.90;;;;;;4992128;28;20537;-57
2022/12/30 06:07:49;;;;;;;1.10;0.83;;;11.10;61.80;;;;;;4991767;28;20261;-57
2022/12/30 06:10:15;;;;;;;1.00;1.00;;;11.00;62.10;;;;;;4992038;28;20199;-57
2022/12/30 06:12:40;;;;;;;2.57;1.00;;;11.00;62.60;;;;;;4992568;28;20598;-57
2022/12/30 06:15:07;;;;;;;1.83;0.80;;;10.90;62.90;;;;;;4992015;28;20439;-57
2022/12/30 06:17:32;;;;;;;1.60;1.50;;;10.80;63.20;;;;;;4991916;28;20238;-57
2022/12/30 06:19:58;;;;;;;2.00;1.20;;;10.60;62.90;;;;;;5004850;28;20499;-57
2022/12/30 06:22:24;;;;;;;2.10;1.20;;;10.50;63.60;;;;;;4992044;28;20658;-57
2022/12/30 06:24:49;;;;;;;1.67;1.57;;;10.40;64.10;;;;;;4985798;28;20191;-57
2022/12/30 06:27:15;;;;;;;4.30;1.30;;;10.50;63.90;;;;;;4991766;28;20199;-57
2022/12/30 06:29:41;;;;;;;1.10;1.00;;;10.60;63.30;;;;;;4991819;28;20232;-57
2022/12/30 06:32:06;;;;;;;3.13;1.57;;;10.70;62.90;;;;;;4991875;28;20277;-57
2022/12/30 06:34:32;;;;;;;3.40;2.13;;;10.30;62.90;;;;;;4991910;28;20195;-57
2022/12/30 06:36:57;;;;;;;1.93;1.13;;;10.00;64.10;;;;;;4991830;28;20237;-57
2022/12/30 06:39:23;;;;;;;2.20;1.20;;;9.70;66.90;;;;;;4991444;28;20227;-57
2022/12/30 06:41:49;;;;;;;1.40;1.30;;;9.60;67.70;;;;;;4991791;28;20572;-57
2022/12/30 06:44:14;;;;;;;1.47;1.33;;;9.60;68.30;;;;;;4991690;28;20277;-57
2022/12/30 06:46:40;;;;;;;1.00;1.00;;;9.60;68.00;;;;;;4991830;28;20942;-57
2022/12/30 06:49:05;;;;;;;1.47;1.23;;;9.70;68.00;;;;;;4991230;28;20709;-57
2022/12/30 06:51:31;;;;;;;1.57;1.13;;;9.80;67.40;;;;;;4990243;28;20206;-57
2022/12/30 06:53:57;;;;;;;1.47;1.37;;;9.60;68.10;;;;;;4991664;28;20204;-57
2022/12/30 06:56:22;;;;;;;2.10;1.40;;;9.30;69.10;;;;;;4991564;28;20622;-57
2022/12/30 06:58:48;;;;;;;1.53;1.30;;;9.40;69.40;;;;;;4991216;28;20194;-57
2022/12/30 07:01:13;;;;;;;2.50;1.73;;;9.30;69.40;;;;;;4991676;28;20191;-57
2022/12/30 07:03:39;;;;;;;2.93;2.30;;;9.20;69.40;;;;;;4991615;28;20198;-56
2022/12/30 07:06:05;;;;;;;2.97;1.80;;;8.90;70.30;;;;;;4991528;28;20530;-57
2022/12/30 07:08:31;;;;;;;2.30;1.73;;;8.80;71.10;;;;;;4991105;28;20712;-56
2022/12/30 07:10:56;;;;;;;4.00;2.10;;;8.80;71.40;;;;;;4995186;28;20545;-56
2022/12/30 07:13:22;;;;;;;3.57;1.77;;;8.70;71.90;;;;;;4994931;28;20226;-57
2022/12/30 07:15:48;;;;;;;2.57;1.83;;;8.70;71.50;;;;;;4995102;28;20198;-57
2022/12/30 07:18:13;;;;;;;4.67;2.20;;;8.80;71.40;;;;;;4994350;28;20318;-57
2022/12/30 07:20:40;;;;;;;2.70;2.00;;;9.00;70.10;;;;;;5006698;28;20210;-56
2022/12/30 07:23:06;;;;;;;4.03;2.70;;;8.70;70.80;;;;;;4995037;28;20484;-56
2022/12/30 07:25:31;;;;;;;2.60;2.40;;;8.80;70.50;;;;;;4991696;28;20205;-56
2022/12/30 07:27:59;;;;;;;2.90;2.20;;;8.40;72.00;;;;;;4994473;28;20258;-55
2022/12/30 07:30:25;;;;;;;5.30;2.70;;;8.50;72.30;;;;;;4994906;28;20818;-56
2022/12/30 07:32:51;;;;;;;3.00;2.63;;;8.60;72.10;;;;;;4994789;28;20933;-57
2022/12/30 07:35:17;;;;;;;2.73;1.97;;;8.90;72.00;;;;;;4994743;28;20458;-57
2022/12/30 07:37:42;;;;;;;2.60;2.40;;;9.30;70.30;;;;;;4994412;28;20223;-57
2022/12/30 07:40:09;;;;;;;2.70;2.50;;;9.90;67.70;;;;;;4994868;28;20194;-57
2022/12/30 07:42:34;;;;;;;2.30;2.10;;;10.60;64.20;;;;;;4994494;28;20245;-57
2022/12/30 07:45:00;;;;;;;2.40;2.20;;;11.50;60.50;;;;;;4993069;28;20834;-57
2022/12/30 07:47:29;;;;;;;2.20;2.00;;;12.30;58.40;;;;;;4994483;28;20244;-57
2022/12/30 07:49:55;;;;;;;1.83;1.73;;;12.80;56.60;;;;;;4994048;28;20577;-57
2022/12/30 07:52:21;;;;;;;2.43;2.13;;;13.10;55.60;;;;;;4994426;28;20863;-58
2022/12/30 07:54:46;;;;;;;2.00;1.90;;;13.40;54.60;;;;;;4994550;28;20186;-57
2022/12/30 07:57:12;;;;;;;3.77;2.10;;;13.60;54.50;;;;;;4994583;28;20609;-57
2022/12/30 07:59:37;;;;;;;2.50;2.30;;;14.00;53.80;;;;;;4994136;28;20205;-57
2022/12/30 08:02:03;;;;;;;2.57;2.37;;;14.20;53.10;;;;;;4994463;28;20194;-57
2022/12/30 08:04:28;;;;;;;2.07;1.93;;;13.70;52.90;;;;;;4994456;28;20202;-57
2022/12/30 08:06:54;;;;;;;2.60;2.23;;;13.30;54.90;;;;;;4994271;28;20222;-57
2022/12/30 08:09:20;;;;;;;4.00;1.90;;;12.80;55.10;;;;;;4993784;28;20233;-57
2022/12/30 08:11:45;;;;;;;2.23;2.03;;;12.40;56.80;;;;;;4992692;28;20187;-57
2022/12/30 08:14:11;;;;;;;3.40;2.67;;;11.80;58.10;;;;;;4994194;28;20198;-57
2022/12/30 08:16:36;;;;;;;2.63;2.43;;;11.50;58.90;;;;;;4993858;28;20234;-57
2022/12/30 08:19:02;;;;;;;4.23;2.00;;;10.90;60.70;;;;;;5001628;28;20263;-57
2022/12/30 08:21:28;;;;;;;2.73;2.43;;;10.20;63.20;;;;;;4999052;28;20274;-57
2022/12/30 08:23:54;;;;;;;2.93;2.50;;;9.80;66.10;;;;;;4993901;28;20198;-57
2022/12/30 08:26:23;;;;;;;2.40;2.20;;;9.70;67.40;;;;;;4990496;28;20194;-58
2022/12/30 08:28:49;;;;;;;2.50;2.30;;;9.60;67.70;;;;;;4993219;28;20956;-57
2022/12/30 08:31:18;;;;;;;2.43;2.20;;;9.50;68.60;;;;;;4993657;28;20418;-57
2022/12/30 08:33:44;;;;;;;2.23;2.03;;;9.50;69.20;;;;;;4993615;28;20437;-57
2022/12/30 08:36:13;;;;;;;2.63;1.93;;;9.40;69.60;;;;;;4993800;28;20425;-57
2022/12/30 08:38:42;;;;;;;1.90;1.80;;;9.40;69.80;;;;;;4991817;28;20438;-57
2022/12/30 08:41:20;;;;;;;1.73;1.63;;;9.30;70.70;;;;;;4993667;28;20446;-57
2022/12/30 08:43:48;;;;;;;2.90;2.30;;;9.30;70.50;;;;;;4992207;28;20447;-57
2022/12/30 08:46:14;;;;;;;2.63;2.10;;;9.20;71.70;;;;;;4993504;28;20422;-57
2022/12/30 08:48:40;;;;;;;2.97;2.10;;;9.20;72.30;;;;;;4993164;28;20477;-57
2022/12/30 08:51:07;;;;;;;2.03;1.83;;;9.30;72.20;;;;;;4993333;28;20421;-57
2022/12/30 08:53:33;;;;;;;2.00;1.90;;;9.20;72.60;;;;;;4993405;28;20893;-57
2022/12/30 08:56:10;;;;;;;3.40;1.70;;;9.30;72.70;;;;;;4993264;28;20426;-57
2022/12/30 08:58:35;;;;;;;3.17;1.73;;;9.40;72.40;;;;;;4992893;28;20443;-57
2022/12/30 09:01:09;;;;;;;2.00;1.47;;;9.50;72.60;;;;;;4993633;28;20552;-57
2022/12/30 09:03:41;;;;;;;1.43;1.27;;;9.30;73.40;;;;;;4991630;28;20194;-57
2022/12/30 09:06:08;;;;;;;1.53;1.33;;;9.40;74.30;;;;;;4993158;28;20437;-57
2022/12/30 09:08:34;;;;;;;1.83;1.73;;;9.50;74.60;;;;;;4992622;28;20481;-56
2022/12/30 09:11:02;;;;;;;2.33;1.90;;;9.80;73.60;;;;;;4993034;28;20457;-57
2022/12/30 09:13:28;;;;;;;3.60;2.10;;;10.00;72.00;;;;;;4993034;28;20435;-57
2022/12/30 09:15:55;;;;;;;1.93;1.80;;;10.10;71.60;;;;;;4993026;28;20792;-57
2022/12/30 09:18:21;;;;;;;2.43;2.23;;;10.20;71.60;;;;;;4994384;28;20540;-57
2022/12/30 09:20:47;;;;;;;2.10;1.90;;;10.40;70.30;;;;;;5003564;28;20436;-57
2022/12/30 09:23:12;;;;;;;2.43;2.20;;;10.30;70.70;;;;;;4992903;28;20831;-57
2022/12/30 09:25:38;;;;;;;2.60;2.40;;;10.30;71.10;;;;;;4993106;28;20906;-57
2022/12/30 09:28:04;;;;;;;3.00;2.03;;;10.30;71.70;;;;;;4992237;28;20222;-57
2022/12/30 09:30:29;;;;;;;1.83;1.60;;;10.30;70.40;;;;;;4991128;28;20252;-57
2022/12/30 09:32:55;;;;;;;2.10;1.93;;;10.50;71.00;;;;;;4992031;28;20190;-57
2022/12/30 09:35:21;;;;;;;2.20;2.00;;;10.60;70.00;;;;;;4992498;28;20269;-57
2022/12/30 09:37:46;;;;;;;2.23;2.07;;;10.80;69.20;;;;;;4992172;28;20203;-57
2022/12/30 09:40:18;;;;;;;2.40;1.87;;;10.90;68.10;;;;;;4992676;28;20203;-58
2022/12/30 09:46:07;;;;;;;3.47;2.33;;;11.40;66.70;;;;;;4992756;28;20795;-57
2022/12/30 09:48:43;;;;;;;1.67;1.57;;;11.70;66.70;;;;;;4989751;28;20585;-57
2022/12/30 09:51:13;;;;;;;1.60;1.50;;;12.00;65.00;;;;;;4992455;28;20425;-57
2022/12/30 09:54:03;;;;;;;1.83;1.67;;;12.10;64.90;;;;;;4992516;28;20433;-57
2022/12/30 09:56:33;;;;;;;2.43;1.90;;;12.20;64.20;;;;;;4991039;28;20458;-57
2022/12/30 09:59:05;;;;;;;2.10;2.00;;;12.40;62.90;;;;;;4991887;28;20520;-57
2022/12/30 10:01:41;;;;;;;2.83;1.90;;;12.50;62.60;;;;;;4992163;28;20453;-57
2022/12/30 10:04:15;;;;;;;1.60;1.50;;;12.70;62.30;;;;;;4992208;28;20914;-56
2022/12/30 10:06:52;;;;;;;1.97;1.77;;;12.90;61.40;;;;;;4992278;28;20425;-57
2022/12/30 10:09:29;;;;;;;5.57;1.37;;;12.80;61.70;;;;;;4991719;28;20512;-57
2022/12/30 10:12:13;;;;;;;2.13;1.57;;;13.00;61.30;;;;;;4991979;28;20430;-57
2022/12/30 10:14:44;;;;;;;1.87;1.77;;;13.30;59.90;;;;;;4992096;28;20438;-57
2022/12/30 10:17:48;;;;;;;2.40;2.07;;;13.40;59.20;;;;;;4991869;28;20474;-57
2022/12/30 10:20:34;;;;;;;1.70;1.60;;;13.40;58.90;;;;;;5005196;28;20438;-57
2022/12/30 10:23:36;;;;;;;2.10;1.70;;;13.50;59.10;;;;;;4990383;28;20457;-57
2022/12/30 10:26:13;;;;;;;2.70;1.50;;;13.70;58.30;;;;;;4988633;28;20461;-57
2022/12/30 10:28:45;;;;;;;1.80;1.70;;;13.50;59.30;;;;;;4991558;28;20571;-57
2022/12/30 10:31:20;;;;;;;1.57;1.40;;;13.60;59.00;;;;;;4991932;28;20856;-57
2022/12/30 10:33:49;;;;;;;2.23;1.70;;;13.50;58.20;;;;;;4991990;28;20432;-57
2022/12/30 10:36:32;;;;;;;1.77;1.20;;;13.60;58.60;;;;;;4991821;28;20546;-57
2022/12/30 10:39:12;;;;;;;1.90;1.80;;;14.00;57.20;;;;;;4991589;28;20453;-57
2022/12/30 10:42:15;;;;;;;1.90;1.67;;;14.00;57.80;;;;;;4991962;28;20428;-57
2022/12/30 10:44:50;;;;;;;2.30;1.90;;;13.90;56.80;;;;;;4993604;28;20783;-57
2022/12/30 10:47:33;;;;;;;2.40;2.20;;;13.70;58.30;;;;;;4995688;28;20433;-57
2022/12/30 10:50:09;;;;;;;1.50;1.40;;;14.10;57.50;;;;;;4994188;28;20488;-57
2022/12/30 10:52:34;;;;;;;3.50;1.37;;;14.10;56.80;;;;;;4995513;28;20425;-57
2022/12/30 10:55:12;;;;;;;1.93;1.80;;;14.30;56.70;;;;;;4995501;28;20413;-57
2022/12/30 10:57:37;;;;;;;2.50;1.43;;;14.50;56.70;;;;;;4995414;28;20205;-57
2022/12/30 11:00:05;;;;;;;3.03;1.80;;;14.50;56.10;;;;;;4995480;28;20433;-57
2022/12/30 11:02:36;;;;;;;2.63;2.20;;;14.60;56.00;;;;;;4995269;28;20848;-57
2022/12/30 11:05:02;;;;;;;2.13;1.60;;;14.60;55.70;;;;;;4995532;28;20689;-57
2022/12/30 11:07:28;;;;;;;2.17;1.53;;;14.40;55.20;;;;;;4994998;28;20500;-58
2022/12/30 11:09:53;;;;;;;2.10;1.30;;;14.50;55.80;;;;;;4995272;28;20233;-58
2022/12/30 11:15:15;;;;;;;1.30;1.20;;;14.70;55.10;;;;;;4995322;28;20570;-58
2022/12/30 11:17:44;;;;;;;1.50;1.33;;;14.90;55.20;;;;;;4993088;28;20472;-58
2022/12/30 11:20:13;;;;;;;1.30;1.20;;;14.90;54.50;;;;;;5008384;28;20528;-57
2022/12/30 11:22:49;;;;;;;1.23;1.07;;;14.60;54.30;;;;;;4995189;28;20465;-58
2022/12/30 11:25:35;;;;;;;1.93;1.50;;;14.40;54.80;;;;;;4991970;28;20433;-57
2022/12/30 11:28:04;;;;;;;1.60;1.50;;;14.60;55.60;;;;;;4994488;28;20477;-58
2022/12/30 11:30:33;;;;;;;1.47;1.37;;;14.70;56.10;;;;;;4994925;28;20433;-58
2022/12/30 11:33:05;;;;;;;1.63;1.27;;;14.80;55.40;;;;;;4995189;28;20426;-57
2022/12/30 11:35:51;;;;;;;0.90;0.90;;;15.00;54.40;;;;;;4995259;28;20440;-57
2022/12/30 11:38:33;;;;;;;1.07;1.07;;;14.80;53.90;;;;;;4993877;28;20449;-58
2022/12/30 11:41:17;;;;;;;1.93;1.20;;;14.70;54.40;;;;;;4994631;28;20746;-58
2022/12/30 11:43:46;;;;;;;3.37;1.23;;;14.90;53.90;;;;;;4993274;28;20437;-58
2022/12/30 11:46:21;;;;;;;1.50;1.10;;;14.80;54.20;;;;;;4994773;28;20422;-58
2022/12/30 11:48:53;;;;;;;1.33;1.23;;;14.70;53.90;;;;;;4994253;28;20538;-58
2022/12/30 11:51:32;;;;;;;2.20;1.20;;;14.80;54.20;;;;;;4994496;28;20480;-58
2022/12/30 11:54:06;;;;;;;1.23;1.10;;;15.10;54.40;;;;;;4994490;28;20536;-58
2022/12/30 11:56:32;;;;;;;1.20;1.10;;;15.60;53.60;;;;;;4994043;28;20440;-58
2022/12/30 11:59:13;;;;;;;1.50;1.40;;;15.90;53.30;;;;;;4993992;28;20442;-59
2022/12/30 12:01:49;;;;;;;2.10;1.90;;;15.80;52.10;;;;;;4994565;28;20437;-58
2022/12/30 12:04:38;;;;;;;1.70;1.10;;;15.80;52.20;;;;;;4994076;28;20782;-58
2022/12/30 12:07:21;;;;;;;1.80;1.10;;;15.40;53.20;;;;;;4994183;28;20894;-58
2022/12/30 12:09:49;;;;;;;1.00;1.00;;;15.40;53.00;;;;;;4992674;28;20850;-58
2022/12/30 12:12:19;;;;;;;1.33;1.23;;;15.30;53.00;;;;;;4994353;28;20941;-58
2022/12/30 12:15:18;;;;;;;1.40;1.30;;;15.10;52.60;;;;;;4994230;28;20425;-58
2022/12/30 12:17:51;;;;;;;1.27;1.07;;;15.00;53.60;;;;;;4993508;28;20473;-57
2022/12/30 12:20:30;;;;;;;1.30;1.20;;;14.90;53.50;;;;;;5007077;28;20868;-58
2022/12/30 12:22:56;;;;;;;1.33;1.10;;;14.90;53.50;;;;;;4994013;28;20429;-57
2022/12/30 12:25:25;;;;;;;1.53;1.23;;;14.90;53.80;;;;;;4991198;28;20484;-58
2022/12/30 12:27:52;;;;;;;1.70;1.13;;;15.20;53.70;;;;;;4993409;28;20197;-58
2022/12/30 12:30:19;;;;;;;2.10;1.57;;;15.20;52.80;;;;;;4993879;28;20436;-57
2022/12/30 12:32:50;;;;;;;3.97;1.93;;;14.90;53.20;;;;;;4993810;28;20430;-58
2022/12/30 12:36:13;;;;;;;1.53;1.43;;;14.90;53.80;;;;;;4992232;28;20512;-57
2022/12/30 12:38:53;;;;;;;1.77;1.47;;;14.80;53.60;;;;;;4970793;28;20446;-57
2022/12/30 12:41:44;;;;;;;2.30;1.40;;;14.50;54.20;;;;;;4993565;28;20434;-57
2022/12/30 12:44:28;;;;;;;1.00;0.90;;;14.30;54.90;;;;;;4993565;28;20465;-57
2022/12/30 12:47:10;;;;;;;1.30;1.20;;;14.40;54.90;;;;;;4993646;28;20520;-58
2022/12/30 12:49:56;;;;;;;1.40;1.30;;;14.50;54.30;;;;;;4993305;28;20575;-57
2022/12/30 12:52:28;;;;;;;1.33;1.13;;;14.40;54.10;;;;;;4993359;28;20430;-58
2022/12/30 12:55:21;;;;;;;2.70;0.93;;;14.40;54.20;;;;;;4993518;28;20438;-57
2022/12/30 12:58:11;;;;;;;0.90;0.90;;;14.40;54.30;;;;;;4992946;28;20533;-58
2022/12/30 13:00:55;;;;;;;1.10;1.00;;;14.40;54.60;;;;;;4993243;28;20434;-57
2022/12/30 13:04:02;;;;;;;0.83;0.73;;;14.50;54.10;;;;;;4991729;28;20468;-57
2022/12/30 13:06:40;;;;;;;1.00;0.90;;;14.20;54.10;;;;;;4992299;28;20453;-57
2022/12/30 13:09:33;;;;;;;3.50;1.10;;;14.10;54.90;;;;;;4992526;28;20496;-58
2022/12/30 13:12:17;;;;;;;1.63;1.20;;;14.00;55.70;;;;;;4993198;28;20526;-57
2022/12/30 13:15:27;;;;;;;1.87;1.73;;;13.70;56.30;;;;;;4993080;28;20422;-57
2022/12/30 13:17:58;;;;;;;2.80;1.17;;;13.60;56.40;;;;;;4992300;28;20512;-58
2022/12/30 13:20:30;;;;;;;1.40;1.20;;;13.70;56.70;;;;;;5005953;28;20433;-58
2022/12/30 13:22:59;;;;;;;2.47;1.57;;;13.80;56.30;;;;;;4992952;28;20511;-58
2022/12/30 13:25:53;;;;;;;3.50;1.50;;;13.90;56.00;;;;;;4989753;28;20430;-58
2022/12/30 13:28:23;;;;;;;1.83;1.50;;;13.70;56.30;;;;;;4984994;28;20496;-57
2022/12/30 13:30:54;;;;;;;1.70;1.43;;;14.00;56.50;;;;;;4992700;28;20464;-57
2022/12/30 13:33:53;;;;;;;1.20;1.10;;;14.20;56.20;;;;;;4992810;28;20450;-58
2022/12/30 13:36:54;;;;;;;1.80;1.37;;;14.40;56.00;;;;;;4992775;28;20422;-58
2022/12/30 13:39:38;;;;;;;2.63;1.90;;;14.50;55.70;;;;;;4955950;28;20514;-57
2022/12/30 13:42:28;;;;;;;3.37;2.80;;;14.10;56.00;;;;;;4991246;28;21007;-57
2022/12/30 13:44:54;;;;;;;3.80;2.63;;;14.00;56.80;;;;;;4992614;28;21043;-58
2022/12/30 13:47:35;;;;;;;1.90;1.60;;;14.10;56.80;;;;;;4991812;28;20438;-57
2022/12/30 13:50:17;;;;;;;2.20;1.47;;;14.00;56.80;;;;;;4992530;28;20496;-57
2022/12/30 13:52:49;;;;;;;2.17;1.73;;;13.90;57.10;;;;;;4992340;28;20457;-57
2022/12/30 13:55:21;;;;;;;1.63;1.37;;;13.70;57.30;;;;;;4991074;28;20417;-57
2022/12/30 13:57:52;;;;;;;2.77;1.70;;;13.80;57.50;;;;;;4991749;28;20437;-58
2022/12/30 14:00:31;;;;;;;2.57;1.63;;;13.90;57.60;;;;;;4991004;28;20433;-58
2022/12/30 14:03:02;;;;;;;2.10;1.50;;;14.00;57.20;;;;;;4992210;28;20453;-57
2022/12/30 14:05:34;;;;;;;4.27;1.23;;;14.00;56.90;;;;;;4992272;28;20436;-57
2022/12/30 14:08:00;;;;;;;1.73;1.60;;;13.70;57.10;;;;;;4991888;28;20433;-57